Terminal Aerodrome Forecast
Issued by NWS

Home | Current Version | Previous Version | Text Only | Print | Product List | Glossary On
Versions: 1 2 3 4 5 6 7 8 9 10 11 12 13 14 15 16 17 18
873
FTUS42 KJAX 280524
TAFCRG
TAF
KCRG 280524Z 2806/2906 22003KT P6SM FEW250
     FM281100 25005KT 6SM BR SCT005
     FM281400 26008KT P6SM FEW250
     FM282300 20007KT P6SM FEW250=

USA.gov is the U.S. government's official web portal to all federal, state and local government web resources and services.